Terminal Aerodrome Forecast
Issued by NWS Sterling, VA

Home | Current Version | Previous Version | Text Only | Print | Product List | Glossary On
Versions: 1 2 3 4 5 6 7 8 9 10 11 12 13 14 15
000
FTUS41 KLWX 011100
TAFMRB
TAF
KMRB 011131Z 0112/0212 00000KT P6SM BKN050
     FM011600 23004KT P6SM BKN050
     FM011800 24006KT P6SM VCTS BKN050CB
     FM012100 26004KT P6SM BKN050
     FM020200 VRB03KT P6SM SCT050=

USA.gov is the U.S. government's official web portal to all federal, state and local government web resources and services.